createdAt,value
2023-01-06T00:00:32.615Z,2.27
2023-01-06T00:02:59.084Z,2.50
2023-01-06T00:05:25.746Z,2.07
2023-01-06T00:07:53.008Z,2.10
2023-01-06T00:10:19.823Z,2.00
2023-01-06T00:12:47.372Z,2.17
2023-01-06T00:15:15.016Z,2.20
2023-01-06T00:17:42.036Z,2.50
2023-01-06T00:20:09.681Z,2.27
2023-01-06T00:22:36.553Z,2.10
2023-01-06T00:25:03.279Z,2.20
2023-01-06T00:27:32.083Z,2.70
2023-01-06T00:29:58.672Z,3.10
2023-01-06T00:32:25.131Z,2.87
2023-01-06T00:34:51.554Z,2.80
2023-01-06T00:37:18.038Z,2.97
2023-01-06T00:39:44.531Z,3.00
2023-01-06T00:42:12.179Z,2.70
2023-01-06T00:44:39.800Z,3.00
2023-01-06T00:47:10.553Z,2.50
2023-01-06T00:49:37.673Z,2.63
2023-01-06T00:52:05.418Z,2.90
2023-01-06T00:54:31.920Z,2.33
2023-01-06T00:56:58.497Z,2.33
2023-01-06T00:59:26.458Z,2.27
2023-01-06T01:01:57.952Z,1.90
2023-01-06T01:04:26.077Z,1.73
2023-01-06T01:06:54.021Z,1.77
2023-01-06T01:09:31.359Z,2.20
2023-01-06T01:12:11.573Z,1.80
2023-01-06T01:14:50.744Z,1.60
2023-01-06T01:17:23.318Z,1.33
2023-01-06T01:19:51.591Z,1.50
2023-01-06T01:22:18.214Z,1.20
2023-01-06T01:24:44.673Z,1.10
2023-01-06T01:27:11.266Z,0.90
2023-01-06T01:29:37.767Z,0.80
2023-01-06T01:32:04.968Z,0.87
2023-01-06T01:34:31.720Z,0.80
2023-01-06T01:36:58.335Z,0.70
2023-01-06T01:39:27.322Z,0.73
2023-01-06T01:41:55.017Z,0.70
2023-01-06T01:44:58.692Z,0.50
2023-01-06T01:47:46.016Z,0.40
2023-01-06T01:50:31.372Z,0.40
2023-01-06T01:53:10.173Z,0.40
2023-01-06T01:55:37.849Z,0.50
2023-01-06T01:58:09.036Z,0.90
2023-01-06T02:00:36.376Z,0.60
2023-01-06T02:03:05.491Z,0.70
2023-01-06T02:05:34.009Z,0.90
2023-01-06T02:08:05.626Z,0.87
2023-01-06T02:10:32.040Z,0.90
2023-01-06T02:12:59.797Z,0.60
2023-01-06T02:15:32.212Z,0.47
2023-01-06T02:18:18.615Z,0.80
2023-01-06T02:21:07.156Z,0.60
2023-01-06T02:23:47.769Z,0.50
2023-01-06T02:26:17.289Z,0.60
2023-01-06T02:28:50.724Z,0.40
2023-01-06T02:31:18.164Z,0.50
2023-01-06T02:34:03.288Z,0.30
2023-01-06T02:36:52.537Z,0.50
2023-01-06T02:39:41.048Z,0.63
2023-01-06T02:42:20.287Z,0.50
2023-01-06T02:45:07.345Z,0.27
2023-01-06T02:47:45.398Z,0.43
2023-01-06T02:50:17.791Z,0.30
2023-01-06T02:53:10.491Z,0.50
2023-01-06T02:55:49.239Z,0.30
2023-01-06T02:58:24.672Z,0.60
2023-01-06T03:00:59.136Z,0.30
2023-01-06T03:03:32.792Z,0.50
2023-01-06T03:06:06.151Z,0.40
2023-01-06T03:08:34.048Z,0.43
2023-01-06T03:11:02.420Z,0.40
2023-01-06T03:13:39.933Z,0.40
2023-01-06T03:16:07.160Z,0.47
2023-01-06T03:18:34.880Z,0.40
2023-01-06T03:21:08.092Z,0.30
2023-01-06T03:23:37.713Z,0.40
2023-01-06T03:26:04.340Z,0.40
2023-01-06T03:28:31.755Z,0.30
2023-01-06T03:31:26.519Z,0.40
2023-01-06T03:34:09.268Z,0.40
2023-01-06T03:36:50.228Z,0.40
2023-01-06T03:39:35.679Z,0.30
2023-01-06T03:42:49.383Z,0.30
2023-01-06T03:45:19.966Z,0.37
2023-01-06T03:48:18.302Z,0.40
2023-01-06T03:50:51.049Z,0.20
2023-01-06T03:53:28.954Z,0.30
2023-01-06T03:56:08.931Z,0.50
2023-01-06T03:58:38.878Z,1.43
2023-01-06T04:01:08.209Z,0.67
2023-01-06T04:03:35.172Z,0.90
2023-01-06T04:06:03.174Z,0.50
2023-01-06T04:08:30.184Z,1.03
2023-01-06T04:10:56.972Z,0.53
2023-01-06T04:13:23.559Z,0.80
2023-01-06T04:15:50.123Z,0.77
2023-01-06T04:18:16.672Z,0.60
2023-01-06T04:20:43.389Z,0.67
2023-01-06T04:23:20.934Z,0.60
2023-01-06T04:25:47.430Z,1.73
2023-01-06T04:28:17.665Z,1.73
2023-01-06T04:30:44.936Z,1.27
2023-01-06T04:33:11.608Z,0.53
2023-01-06T04:35:39.746Z,0.40
2023-01-06T04:38:06.290Z,0.83
2023-01-06T04:40:32.662Z,0.73
2023-01-06T04:43:05.149Z,0.90
2023-01-06T04:45:32.623Z,1.20
2023-01-06T04:47:59.204Z,1.30
2023-01-06T04:50:25.661Z,2.00
2023-01-06T04:52:52.094Z,1.40
2023-01-06T04:55:18.699Z,0.60
2023-01-06T04:57:45.114Z,4.37
2023-01-06T05:00:12.089Z,1.00
2023-01-06T05:02:38.577Z,1.33
2023-01-06T05:05:05.350Z,1.40
2023-01-06T05:07:31.783Z,1.30
2023-01-06T05:09:58.207Z,0.97
2023-01-06T05:12:24.732Z,1.00
2023-01-06T05:14:51.368Z,2.03
2023-01-06T05:17:17.829Z,3.97
2023-01-06T05:19:45.362Z,0.80
2023-01-06T05:22:12.072Z,0.70
2023-01-06T05:24:38.788Z,0.43
2023-01-06T05:27:05.675Z,0.53
2023-01-06T05:29:32.338Z,0.70
2023-01-06T05:31:58.938Z,0.70
2023-01-06T05:34:26.634Z,0.60
2023-01-06T05:36:53.228Z,0.40
2023-01-06T05:39:19.760Z,0.60
2023-01-06T05:41:46.357Z,0.70
2023-01-06T05:44:12.928Z,0.40
2023-01-06T05:46:39.423Z,0.90
2023-01-06T05:49:05.929Z,2.00
2023-01-06T05:51:32.334Z,0.80
2023-01-06T05:53:58.748Z,0.93
2023-01-06T05:56:25.216Z,0.67
2023-01-06T05:58:52.929Z,0.80
2023-01-06T06:01:20.989Z,0.67
2023-01-06T06:03:48.541Z,0.33
2023-01-06T06:06:15.417Z,0.40
2023-01-06T06:08:42.057Z,0.43
2023-01-06T06:11:11.760Z,0.60
2023-01-06T06:13:38.825Z,1.17
2023-01-06T06:16:14.468Z,0.60
2023-01-06T06:18:44.823Z,0.63
2023-01-06T06:21:13.683Z,0.40
2023-01-06T06:23:40.686Z,0.60
2023-01-06T06:26:08.485Z,0.50
2023-01-06T06:28:36.124Z,0.60
2023-01-06T06:31:32.362Z,0.60
2023-01-06T06:34:01.959Z,0.50
2023-01-06T06:36:28.995Z,0.93
2023-01-06T06:38:56.003Z,0.50
2023-01-06T06:41:24.267Z,0.60
2023-01-06T06:43:51.346Z,0.73
2023-01-06T06:46:19.031Z,1.03
2023-01-06T06:48:45.514Z,1.13
2023-01-06T06:51:14.785Z,1.40
2023-01-06T06:53:41.286Z,0.70
2023-01-06T06:56:09.715Z,0.70
2023-01-06T06:58:37.680Z,1.00
2023-01-06T07:01:06.094Z,0.73
2023-01-06T07:03:33.124Z,0.87
2023-01-06T07:06:00.993Z,0.57
2023-01-06T07:08:27.776Z,0.50
2023-01-06T07:10:54.436Z,0.50
2023-01-06T07:13:20.959Z,0.60
2023-01-06T07:15:47.644Z,0.90
2023-01-06T07:18:14.120Z,0.80
2023-01-06T07:20:40.655Z,0.80
2023-01-06T07:23:07.137Z,0.50
2023-01-06T07:25:33.613Z,0.53
2023-01-06T07:28:05.449Z,0.40
2023-01-06T07:30:33.248Z,0.67
2023-01-06T07:33:00.384Z,0.77
2023-01-06T07:35:26.904Z,1.00
2023-01-06T07:37:53.316Z,0.90
2023-01-06T07:40:19.919Z,1.67
2023-01-06T07:42:47.359Z,0.90
2023-01-06T07:45:14.123Z,0.83
2023-01-06T07:47:40.588Z,0.73
2023-01-06T07:50:07.432Z,0.90
2023-01-06T07:52:33.924Z,1.10
2023-01-06T07:55:00.545Z,1.10
2023-01-06T07:57:28.262Z,0.70
2023-01-06T07:59:55.962Z,0.73
2023-01-06T08:02:23.217Z,1.20
2023-01-06T08:04:49.919Z,1.10
2023-01-06T08:07:16.922Z,1.10
2023-01-06T08:09:43.506Z,0.90
2023-01-06T08:12:10.002Z,0.83
2023-01-06T08:14:36.441Z,1.10
2023-01-06T08:17:03.579Z,1.40
2023-01-06T08:19:30.098Z,1.03
2023-01-06T08:21:56.592Z,1.10
2023-01-06T08:24:23.097Z,1.00
2023-01-06T08:26:49.514Z,1.30
2023-01-06T08:29:16.090Z,1.10
2023-01-06T08:31:42.603Z,1.20
2023-01-06T08:34:11.421Z,0.90
2023-01-06T08:36:38.707Z,1.07
2023-01-06T08:39:05.196Z,1.13
2023-01-06T08:41:31.822Z,1.03
2023-01-06T08:43:58.678Z,1.30
2023-01-06T08:46:26.450Z,1.10
2023-01-06T08:48:53.026Z,1.30
2023-01-06T08:51:23.616Z,1.10
2023-01-06T08:53:51.387Z,1.00
2023-01-06T08:56:20.801Z,1.13
2023-01-06T08:58:52.934Z,1.40
2023-01-06T09:01:23.514Z,1.47
2023-01-06T09:03:50.366Z,1.60
2023-01-06T09:06:17.943Z,1.80
2023-01-06T09:08:44.578Z,1.23
2023-01-06T09:11:12.556Z,1.30
2023-01-06T09:13:39.164Z,1.50
2023-01-06T09:16:09.990Z,1.63
2023-01-06T09:18:37.619Z,1.40
2023-01-06T09:21:04.938Z,1.80
2023-01-06T09:23:32.484Z,1.80
2023-01-06T09:25:59.411Z,1.73
2023-01-06T09:28:26.369Z,1.17
2023-01-06T09:30:53.003Z,1.30
2023-01-06T09:33:19.523Z,1.60
2023-01-06T09:35:46.947Z,1.30
2023-01-06T09:38:14.159Z,1.40
2023-01-06T09:41:02.499Z,1.90
2023-01-06T09:43:40.953Z,1.90
2023-01-06T09:46:10.345Z,2.47
2023-01-06T09:48:52.858Z,1.67
2023-01-06T09:51:23.460Z,1.40
2023-01-06T09:54:05.679Z,1.17
2023-01-06T09:56:32.620Z,1.67
2023-01-06T09:59:08.728Z,1.50
2023-01-06T10:01:42.358Z,1.20
2023-01-06T10:04:18.246Z,1.20
2023-01-06T10:07:07.169Z,1.37
2023-01-06T10:09:49.459Z,1.40
2023-01-06T10:12:35.775Z,1.37
2023-01-06T10:15:30.493Z,1.10
2023-01-06T10:18:21.141Z,1.03
2023-01-06T10:21:14.342Z,1.00
2023-01-06T10:23:50.162Z,0.97
2023-01-06T10:26:29.471Z,1.43
2023-01-06T10:29:02.853Z,1.30
2023-01-06T10:31:36.626Z,0.90
2023-01-06T10:34:04.458Z,1.13
2023-01-06T10:36:40.980Z,1.07
2023-01-06T10:39:16.082Z,1.00
2023-01-06T10:42:23.170Z,1.20
2023-01-06T10:44:49.617Z,1.30
2023-01-06T10:47:25.656Z,0.90
2023-01-06T10:49:52.229Z,0.87
2023-01-06T10:52:20.678Z,0.73
2023-01-06T10:54:49.291Z,1.33
2023-01-06T10:57:22.542Z,0.80
2023-01-06T11:00:09.561Z,1.40
2023-01-06T11:02:36.234Z,0.80
2023-01-06T11:05:02.949Z,0.73
2023-01-06T11:07:30.466Z,1.10
2023-01-06T11:09:57.612Z,1.10
2023-01-06T11:12:27.956Z,1.00
2023-01-06T11:15:01.832Z,0.97
2023-01-06T11:17:29.601Z,0.93
2023-01-06T11:20:27.469Z,0.60
2023-01-06T11:22:53.966Z,1.10
2023-01-06T11:25:20.331Z,0.73
2023-01-06T11:27:48.375Z,0.97
2023-01-06T11:30:26.714Z,1.10
2023-01-06T11:32:53.914Z,1.10
2023-01-06T11:35:24.681Z,0.80
2023-01-06T11:37:57.872Z,1.23
2023-01-06T11:40:28.613Z,1.40
2023-01-06T11:42:58.414Z,1.27
2023-01-06T11:45:48.748Z,0.90
2023-01-06T11:48:58.514Z,0.90
2023-01-06T11:51:44.206Z,0.60
2023-01-06T11:54:35.477Z,0.80
2023-01-06T11:57:15.983Z,0.90
2023-01-06T11:59:54.288Z,0.77
2023-01-06T12:02:30.260Z,0.90
2023-01-06T12:04:57.070Z,1.33
2023-01-06T12:07:49.022Z,1.80
2023-01-06T12:10:24.261Z,2.03
2023-01-06T12:12:50.883Z,1.33
2023-01-06T12:15:18.887Z,1.57
2023-01-06T12:17:55.059Z,0.90
2023-01-06T12:20:28.607Z,1.10
2023-01-06T12:23:00.693Z,0.97
2023-01-06T12:25:38.219Z,0.70
2023-01-06T12:28:28.132Z,0.90
2023-01-06T12:31:15.893Z,1.87
2023-01-06T12:33:54.683Z,0.70
2023-01-06T12:36:27.902Z,1.20
2023-01-06T12:38:58.733Z,0.83
2023-01-06T12:41:34.143Z,1.27
2023-01-06T12:44:13.126Z,1.40
2023-01-06T12:46:51.273Z,1.73
2023-01-06T12:49:35.039Z,1.40
2023-01-06T12:52:07.411Z,1.10
2023-01-06T12:54:35.407Z,1.67
2023-01-06T12:57:29.330Z,1.87
2023-01-06T13:00:21.336Z,1.83
2023-01-06T13:02:59.969Z,1.00
2023-01-06T13:05:55.076Z,0.70
2023-01-06T13:08:43.103Z,1.30
2023-01-06T13:11:12.463Z,2.00
2023-01-06T13:13:57.687Z,0.90
2023-01-06T13:16:35.773Z,1.13
2023-01-06T13:19:35.574Z,1.30
2023-01-06T13:22:05.470Z,0.73
2023-01-06T13:24:55.693Z,0.80
2023-01-06T13:28:04.522Z,0.70
2023-01-06T13:30:53.490Z,0.70
2023-01-06T13:34:09.661Z,1.00
2023-01-06T13:37:15.759Z,0.73
2023-01-06T13:39:50.129Z,0.80
2023-01-06T13:42:23.922Z,1.10
2023-01-06T13:44:50.430Z,1.90
2023-01-06T13:47:21.815Z,0.60
2023-01-06T13:49:48.305Z,1.90
2023-01-06T13:52:23.396Z,1.80
2023-01-06T13:54:50.971Z,1.60
2023-01-06T13:57:20.339Z,1.50
2023-01-06T14:00:15.231Z,1.67
2023-01-06T14:02:42.792Z,1.30
2023-01-06T14:05:29.219Z,1.40
2023-01-06T14:08:04.099Z,0.87
2023-01-06T14:10:43.090Z,1.33
2023-01-06T14:13:25.685Z,1.40
2023-01-06T14:16:13.751Z,1.00
2023-01-06T14:18:51.688Z,0.97
2023-01-06T14:21:24.701Z,0.90
2023-01-06T14:23:55.388Z,1.20
2023-01-06T14:26:42.376Z,0.93
2023-01-06T14:29:43.252Z,1.20
2023-01-06T14:32:33.826Z,1.07
2023-01-06T14:35:04.593Z,1.50
2023-01-06T14:37:46.100Z,1.40
2023-01-06T14:40:22.853Z,1.73
2023-01-06T14:42:50.707Z,4.50
2023-01-06T14:45:27.619Z,3.80
2023-01-06T14:48:17.380Z,2.80
2023-01-06T14:50:49.431Z,2.70
2023-01-06T14:53:31.848Z,1.60
2023-01-06T14:55:59.809Z,2.60
2023-01-06T14:58:37.004Z,3.70
2023-01-06T15:01:06.488Z,2.00
2023-01-06T15:03:34.659Z,1.50
2023-01-06T15:06:16.772Z,1.27
2023-01-06T15:08:43.566Z,3.60
2023-01-06T15:11:22.540Z,2.90
2023-01-06T15:13:49.107Z,5.63
2023-01-06T15:16:36.932Z,2.00
2023-01-06T15:19:09.113Z,1.10
2023-01-06T15:21:40.410Z,2.10
2023-01-06T15:24:19.592Z,1.83
2023-01-06T15:26:46.466Z,1.37
2023-01-06T15:29:16.735Z,1.80
2023-01-06T15:31:44.101Z,1.70
2023-01-06T15:34:33.624Z,2.00
2023-01-06T15:37:02.842Z,1.73
2023-01-06T15:39:31.219Z,1.50
2023-01-06T15:41:59.594Z,1.57
2023-01-06T15:44:32.594Z,1.30
2023-01-06T15:47:19.264Z,1.10
2023-01-06T15:49:56.521Z,2.67
2023-01-06T15:52:32.971Z,2.30
2023-01-06T15:55:02.750Z,2.00
2023-01-06T15:57:34.709Z,2.90
2023-01-06T16:00:05.738Z,1.70
2023-01-06T16:02:33.447Z,1.60
2023-01-06T16:05:00.815Z,5.30
2023-01-06T16:07:46.775Z,2.00
2023-01-06T16:10:35.071Z,3.67
2023-01-06T16:13:05.678Z,4.80
2023-01-06T16:15:45.689Z,4.30
2023-01-06T16:18:13.459Z,4.33
2023-01-06T16:20:40.303Z,3.20
2023-01-06T16:23:07.058Z,1.63
2023-01-06T16:25:35.282Z,1.93
2023-01-06T16:28:04.317Z,1.60
2023-01-06T16:30:36.373Z,1.87
2023-01-06T16:33:03.608Z,1.27
2023-01-06T16:35:33.061Z,1.37
2023-01-06T16:38:00.125Z,1.67
2023-01-06T16:40:28.465Z,3.97
2023-01-06T16:43:02.886Z,3.13
2023-01-06T16:45:32.363Z,4.13
2023-01-06T16:47:59.166Z,2.17
2023-01-06T16:50:33.004Z,1.90
2023-01-06T16:52:59.381Z,2.10
2023-01-06T16:55:26.406Z,2.67
2023-01-06T16:57:52.914Z,3.30
2023-01-06T17:00:23.501Z,2.33
2023-01-06T17:02:51.248Z,2.77
2023-01-06T17:05:24.342Z,3.20
2023-01-06T17:07:52.817Z,4.07
2023-01-06T17:10:21.466Z,3.13
2023-01-06T17:13:22.195Z,3.10
2023-01-06T17:15:58.424Z,3.53
2023-01-06T17:18:27.444Z,2.80
2023-01-06T17:21:10.710Z,2.73
2023-01-06T17:23:52.859Z,1.93
2023-01-06T17:26:20.925Z,2.30
2023-01-06T17:28:49.359Z,2.53
2023-01-06T17:31:21.318Z,3.00
2023-01-06T17:33:47.777Z,2.47
2023-01-06T17:36:29.800Z,2.87
2023-01-06T17:38:56.224Z,2.37
2023-01-06T17:41:23.024Z,2.03
2023-01-06T17:43:49.456Z,2.33
2023-01-06T17:46:30.134Z,2.33
2023-01-06T17:49:07.635Z,2.47
2023-01-06T17:51:42.168Z,1.90
2023-01-06T17:54:38.527Z,1.70
2023-01-06T17:57:20.847Z,2.00
2023-01-06T17:59:53.361Z,2.10
2023-01-06T18:02:43.018Z,2.17
2023-01-06T18:05:34.814Z,2.80
2023-01-06T18:08:07.244Z,3.13
2023-01-06T18:10:36.007Z,2.70
2023-01-06T18:13:18.481Z,2.00
2023-01-06T18:15:52.186Z,2.30
2023-01-06T18:18:27.322Z,2.40
2023-01-06T18:20:58.622Z,2.60
2023-01-06T18:23:26.452Z,2.63
2023-01-06T18:25:58.715Z,1.90
2023-01-06T18:28:25.168Z,1.77
2023-01-06T18:31:03.017Z,1.70
2023-01-06T18:33:29.838Z,1.57
2023-01-06T18:35:59.134Z,1.83
2023-01-06T18:38:27.323Z,1.97
2023-01-06T18:40:54.744Z,1.80
2023-01-06T18:43:27.912Z,1.90
2023-01-06T18:45:57.789Z,1.60
2023-01-06T18:48:28.220Z,1.80
2023-01-06T18:50:57.181Z,1.33
2023-01-06T18:53:51.412Z,1.60
2023-01-06T18:56:21.795Z,2.47
2023-01-06T18:58:52.371Z,1.87
2023-01-06T19:01:22.758Z,1.70
2023-01-06T19:04:03.387Z,2.47
2023-01-06T19:06:42.366Z,2.97
2023-01-06T19:09:24.210Z,1.73
2023-01-06T19:12:00.973Z,1.80
2023-01-06T19:14:32.656Z,1.80
2023-01-06T19:16:59.179Z,1.60
2023-01-06T19:19:38.223Z,2.00
2023-01-06T19:22:19.205Z,2.50
2023-01-06T19:24:49.726Z,2.37
2023-01-06T19:27:30.646Z,2.40
2023-01-06T19:30:22.186Z,2.40
2023-01-06T19:32:49.056Z,2.80
2023-01-06T19:35:22.575Z,2.80
2023-01-06T19:37:55.051Z,2.80
2023-01-06T19:40:30.517Z,4.00
2023-01-06T19:43:12.839Z,2.00
2023-01-06T19:45:39.335Z,2.40
2023-01-06T19:48:26.036Z,5.00
2023-01-06T19:51:11.301Z,2.20
2023-01-06T19:53:43.231Z,3.07
2023-01-06T19:56:22.853Z,2.53
2023-01-06T19:59:01.322Z,2.00
2023-01-06T20:01:31.448Z,2.73
2023-01-06T20:03:58.096Z,4.70
2023-01-06T20:06:24.766Z,3.87
2023-01-06T20:08:54.615Z,2.73
2023-01-06T20:11:22.337Z,2.90
2023-01-06T20:13:49.050Z,15.23
2023-01-06T20:16:15.506Z,24.57
2023-01-06T20:18:42.094Z,3.73
2023-01-06T20:21:08.497Z,2.60
2023-01-06T20:23:34.924Z,5.00
2023-01-06T20:26:01.445Z,3.33
2023-01-06T20:28:27.849Z,3.20
2023-01-06T20:30:54.264Z,2.70
2023-01-06T20:33:20.701Z,2.47
2023-01-06T20:35:47.212Z,2.67
2023-01-06T20:38:13.696Z,2.70
2023-01-06T20:40:40.144Z,3.43
2023-01-06T20:43:07.207Z,3.70
2023-01-06T20:45:34.009Z,1.93
2023-01-06T20:48:00.434Z,2.60
2023-01-06T20:50:27.741Z,1.67
2023-01-06T20:52:54.791Z,2.33
2023-01-06T20:55:21.264Z,2.13
2023-01-06T20:57:48.084Z,2.13
2023-01-06T21:00:15.332Z,3.10
2023-01-06T21:02:41.959Z,4.13
2023-01-06T21:05:08.722Z,4.47
2023-01-06T21:07:35.442Z,3.83
2023-01-06T21:10:02.233Z,3.33
2023-01-06T21:12:28.664Z,1.93
2023-01-06T21:14:55.086Z,1.97
2023-01-06T21:17:21.760Z,1.90
2023-01-06T21:19:48.262Z,1.50
2023-01-06T21:22:14.722Z,1.50
2023-01-06T21:24:41.208Z,1.90
2023-01-06T21:27:07.654Z,1.73
2023-01-06T21:29:34.129Z,1.73
2023-01-06T21:32:00.523Z,1.70
2023-01-06T21:34:27.033Z,2.20
2023-01-06T21:36:53.432Z,1.63
2023-01-06T21:39:19.908Z,1.50
2023-01-06T21:42:05.181Z,1.30
2023-01-06T21:44:31.724Z,1.40
2023-01-06T21:46:59.637Z,1.20
2023-01-06T21:49:26.032Z,1.50
2023-01-06T21:51:54.549Z,1.60
2023-01-06T21:54:21.076Z,1.60
2023-01-06T21:56:47.672Z,1.30
2023-01-06T21:59:14.152Z,0.90
2023-01-06T22:01:40.711Z,1.47
2023-01-06T22:04:07.509Z,1.40
2023-01-06T22:06:36.600Z,0.83
2023-01-06T22:09:06.479Z,1.20
2023-01-06T22:11:33.528Z,1.40
2023-01-06T22:14:00.355Z,1.20
2023-01-06T22:16:27.414Z,1.00
2023-01-06T22:18:54.873Z,1.53
2023-01-06T22:21:21.830Z,1.80
2023-01-06T22:23:49.229Z,3.00
2023-01-06T22:26:15.739Z,2.13
2023-01-06T22:28:42.267Z,1.27
2023-01-06T22:31:08.688Z,1.80
2023-01-06T22:33:35.161Z,1.63
2023-01-06T22:36:01.572Z,1.10
2023-01-06T22:38:28.070Z,1.33
2023-01-06T22:40:54.621Z,1.20
2023-01-06T22:43:22.433Z,1.13
2023-01-06T22:45:52.970Z,1.20
2023-01-06T22:48:19.581Z,1.00
2023-01-06T22:50:45.992Z,1.17
2023-01-06T22:53:12.439Z,0.80
2023-01-06T22:55:38.906Z,1.10
2023-01-06T22:58:05.418Z,1.00
2023-01-06T23:00:32.036Z,1.10
2023-01-06T23:02:58.632Z,1.20
2023-01-06T23:05:25.064Z,0.90
2023-01-06T23:07:51.525Z,0.97
2023-01-06T23:10:18.435Z,1.40
2023-01-06T23:12:44.895Z,1.33
2023-01-06T23:15:11.900Z,1.17
2023-01-06T23:17:38.366Z,1.10
2023-01-06T23:20:05.811Z,1.00
2023-01-06T23:22:32.274Z,1.10
2023-01-06T23:24:58.805Z,1.60
2023-01-06T23:27:25.195Z,1.37
2023-01-06T23:29:51.621Z,1.20
2023-01-06T23:32:18.050Z,1.30
2023-01-06T23:34:44.454Z,1.20
2023-01-06T23:37:11.219Z,0.90
2023-01-06T23:39:37.651Z,1.13
2023-01-06T23:42:05.504Z,0.93
2023-01-06T23:44:31.907Z,1.00
2023-01-06T23:46:58.316Z,1.43
2023-01-06T23:49:24.720Z,0.90
2023-01-06T23:51:51.156Z,1.00
2023-01-06T23:54:17.585Z,1.10
2023-01-06T23:56:44.014Z,1.00
2023-01-06T23:59:12.061Z,1.00
